sensor_id;sensor_type;location;lat;lon;timestamp;temperature;humidity
6307;DHT22;3186;54.062;9.962;2023-12-14T00:01:12;4.60;99.90
6307;DHT22;3186;54.062;9.962;2023-12-14T00:03:39;4.50;99.90
6307;DHT22;3186;54.062;9.962;2023-12-14T00:06:12;4.50;99.90
6307;DHT22;3186;54.062;9.962;2023-12-14T00:08:37;4.60;99.90
6307;DHT22;3186;54.062;9.962;2023-12-14T00:11:08;4.60;99.90
6307;DHT22;3186;54.062;9.962;2023-12-14T00:13:34;4.50;99.90
6307;DHT22;3186;54.062;9.962;2023-12-14T00:16:00;4.60;99.90
6307;DHT22;3186;54.062;9.962;2023-12-14T00:18:25;4.50;99.90
6307;DHT22;3186;54.062;9.962;2023-12-14T00:20:51;4.50;99.90
6307;DHT22;3186;54.062;9.962;2023-12-14T00:23:18;4.50;99.90
6307;DHT22;3186;54.062;9.962;2023-12-14T00:25:43;4.50;99.90
6307;DHT22;3186;54.062;9.962;2023-12-14T00:28:09;4.60;99.90
6307;DHT22;3186;54.062;9.962;2023-12-14T00:30:35;4.60;99.90
6307;DHT22;3186;54.062;9.962;2023-12-14T00:33:00;4.50;99.90
6307;DHT22;3186;54.062;9.962;2023-12-14T00:35:26;4.60;99.90
6307;DHT22;3186;54.062;9.962;2023-12-14T00:37:51;4.60;99.90
6307;DHT22;3186;54.062;9.962;2023-12-14T00:40:17;4.60;99.90
6307;DHT22;3186;54.062;9.962;2023-12-14T00:42:43;4.60;99.90
6307;DHT22;3186;54.062;9.962;2023-12-14T00:45:08;4.60;99.90
6307;DHT22;3186;54.062;9.962;2023-12-14T00:47:34;4.60;99.90
6307;DHT22;3186;54.062;9.962;2023-12-14T00:50:00;4.60;99.90
6307;DHT22;3186;54.062;9.962;2023-12-14T00:52:26;4.60;99.90
6307;DHT22;3186;54.062;9.962;2023-12-14T00:54:51;4.60;99.90
6307;DHT22;3186;54.062;9.962;2023-12-14T00:57:17;4.50;99.90
6307;DHT22;3186;54.062;9.962;2023-12-14T00:59:42;4.60;99.90
6307;DHT22;3186;54.062;9.962;2023-12-14T01:02:08;4.60;99.90
6307;DHT22;3186;54.062;9.962;2023-12-14T01:04:33;4.60;99.90
6307;DHT22;3186;54.062;9.962;2023-12-14T01:06:59;4.60;99.90
6307;DHT22;3186;54.062;9.962;2023-12-14T01:09:25;4.60;99.90
6307;DHT22;3186;54.062;9.962;2023-12-14T01:11:50;4.80;99.90
6307;DHT22;3186;54.062;9.962;2023-12-14T01:14:16;4.60;99.90
6307;DHT22;3186;54.062;9.962;2023-12-14T01:16:42;4.60;99.90
6307;DHT22;3186;54.062;9.962;2023-12-14T01:19:07;4.60;99.90
6307;DHT22;3186;54.062;9.962;2023-12-14T01:21:33;4.60;99.90
6307;DHT22;3186;54.062;9.962;2023-12-14T01:23:59;4.60;99.90
6307;DHT22;3186;54.062;9.962;2023-12-14T01:26:26;4.60;99.90
6307;DHT22;3186;54.062;9.962;2023-12-14T01:28:52;4.60;99.90
6307;DHT22;3186;54.062;9.962;2023-12-14T01:31:18;4.60;99.90
6307;DHT22;3186;54.062;9.962;2023-12-14T01:33:44;4.60;99.90
6307;DHT22;3186;54.062;9.962;2023-12-14T01:36:11;4.60;99.90
6307;DHT22;3186;54.062;9.962;2023-12-14T01:38:37;4.60;99.90
6307;DHT22;3186;54.062;9.962;2023-12-14T01:41:03;4.50;99.90
6307;DHT22;3186;54.062;9.962;2023-12-14T01:43:29;4.50;99.90
6307;DHT22;3186;54.062;9.962;2023-12-14T01:45:54;4.60;99.90
6307;DHT22;3186;54.062;9.962;2023-12-14T01:48:20;4.60;99.90
6307;DHT22;3186;54.062;9.962;2023-12-14T01:50:46;4.60;99.90
6307;DHT22;3186;54.062;9.962;2023-12-14T01:53:12;4.60;99.90
6307;DHT22;3186;54.062;9.962;2023-12-14T01:55:37;4.60;99.90
6307;DHT22;3186;54.062;9.962;2023-12-14T01:58:03;4.60;99.90
6307;DHT22;3186;54.062;9.962;2023-12-14T02:03:00;4.60;99.90
6307;DHT22;3186;54.062;9.962;2023-12-14T02:05:26;4.60;99.90
6307;DHT22;3186;54.062;9.962;2023-12-14T02:07:51;4.60;99.90
6307;DHT22;3186;54.062;9.962;2023-12-14T02:10:17;4.60;99.90
6307;DHT22;3186;54.062;9.962;2023-12-14T02:12:43;4.50;99.90
6307;DHT22;3186;54.062;9.962;2023-12-14T02:15:08;4.60;99.90
6307;DHT22;3186;54.062;9.962;2023-12-14T02:17:34;4.60;99.90
6307;DHT22;3186;54.062;9.962;2023-12-14T02:20:00;4.60;99.90
6307;DHT22;3186;54.062;9.962;2023-12-14T02:22:26;4.60;99.90
6307;DHT22;3186;54.062;9.962;2023-12-14T02:24:52;4.60;99.90
6307;DHT22;3186;54.062;9.962;2023-12-14T02:27:17;4.60;99.90
6307;DHT22;3186;54.062;9.962;2023-12-14T02:29:43;4.60;99.90
6307;DHT22;3186;54.062;9.962;2023-12-14T02:32:08;4.60;99.90
6307;DHT22;3186;54.062;9.962;2023-12-14T02:34:34;4.60;99.90
6307;DHT22;3186;54.062;9.962;2023-12-14T02:37:00;4.60;99.90
6307;DHT22;3186;54.062;9.962;2023-12-14T02:39:25;4.60;99.90
6307;DHT22;3186;54.062;9.962;2023-12-14T02:41:51;4.60;99.90
6307;DHT22;3186;54.062;9.962;2023-12-14T02:44:16;4.60;99.90
6307;DHT22;3186;54.062;9.962;2023-12-14T02:46:42;4.60;99.90
6307;DHT22;3186;54.062;9.962;2023-12-14T02:49:08;4.50;99.90
6307;DHT22;3186;54.062;9.962;2023-12-14T02:51:33;4.60;99.90
6307;DHT22;3186;54.062;9.962;2023-12-14T02:53:59;4.60;99.90
6307;DHT22;3186;54.062;9.962;2023-12-14T02:56:25;4.60;99.90
6307;DHT22;3186;54.062;9.962;2023-12-14T02:58:50;4.50;99.90
6307;DHT22;3186;54.062;9.962;2023-12-14T03:01:20;4.60;99.90
6307;DHT22;3186;54.062;9.962;2023-12-14T03:03:47;4.60;99.90
6307;DHT22;3186;54.062;9.962;2023-12-14T03:06:12;4.60;99.90
6307;DHT22;3186;54.062;9.962;2023-12-14T03:08:38;4.60;99.90
6307;DHT22;3186;54.062;9.962;2023-12-14T03:11:03;4.60;99.90
6307;DHT22;3186;54.062;9.962;2023-12-14T03:13:29;4.60;99.90
6307;DHT22;3186;54.062;9.962;2023-12-14T03:15:55;4.50;99.90
6307;DHT22;3186;54.062;9.962;2023-12-14T03:18:20;4.50;99.90
6307;DHT22;3186;54.062;9.962;2023-12-14T03:20:46;4.60;99.90
6307;DHT22;3186;54.062;9.962;2023-12-14T03:23:11;4.60;99.90
6307;DHT22;3186;54.062;9.962;2023-12-14T03:25:37;4.60;99.90
6307;DHT22;3186;54.062;9.962;2023-12-14T03:28:03;4.60;99.90
6307;DHT22;3186;54.062;9.962;2023-12-14T03:30:28;4.60;99.90
6307;DHT22;3186;54.062;9.962;2023-12-14T03:32:54;4.60;99.90
6307;DHT22;3186;54.062;9.962;2023-12-14T03:35:19;4.60;99.90
6307;DHT22;3186;54.062;9.962;2023-12-14T03:37:45;4.60;99.90
6307;DHT22;3186;54.062;9.962;2023-12-14T03:40:11;4.60;99.90
6307;DHT22;3186;54.062;9.962;2023-12-14T03:42:36;4.60;99.90
6307;DHT22;3186;54.062;9.962;2023-12-14T03:45:02;4.50;99.90
6307;DHT22;3186;54.062;9.962;2023-12-14T03:47:28;4.50;99.90
6307;DHT22;3186;54.062;9.962;2023-12-14T03:49:53;4.60;99.90
6307;DHT22;3186;54.062;9.962;2023-12-14T03:52:19;4.60;99.90
6307;DHT22;3186;54.062;9.962;2023-12-14T03:54:44;4.60;99.90
6307;DHT22;3186;54.062;9.962;2023-12-14T03:57:10;4.60;99.90
6307;DHT22;3186;54.062;9.962;2023-12-14T03:59:39;4.50;99.90
6307;DHT22;3186;54.062;9.962;2023-12-14T04:02:05;4.60;99.90
6307;DHT22;3186;54.062;9.962;2023-12-14T04:04:31;4.50;99.90
6307;DHT22;3186;54.062;9.962;2023-12-14T04:06:57;4.60;99.90
6307;DHT22;3186;54.062;9.962;2023-12-14T04:09:22;4.50;99.90
6307;DHT22;3186;54.062;9.962;2023-12-14T04:11:48;4.50;99.90
6307;DHT22;3186;54.062;9.962;2023-12-14T04:14:13;4.50;99.90
6307;DHT22;3186;54.062;9.962;2023-12-14T04:16:39;4.60;99.90
6307;DHT22;3186;54.062;9.962;2023-12-14T04:19:04;4.50;99.90
6307;DHT22;3186;54.062;9.962;2023-12-14T04:21:36;4.60;99.90
6307;DHT22;3186;54.062;9.962;2023-12-14T04:24:01;4.60;99.90
6307;DHT22;3186;54.062;9.962;2023-12-14T04:26:27;4.60;99.90
6307;DHT22;3186;54.062;9.962;2023-12-14T04:28:53;4.60;99.90
6307;DHT22;3186;54.062;9.962;2023-12-14T04:31:19;4.60;99.90
6307;DHT22;3186;54.062;9.962;2023-12-14T04:33:44;4.60;99.90
6307;DHT22;3186;54.062;9.962;2023-12-14T04:36:10;4.50;99.90
6307;DHT22;3186;54.062;9.962;2023-12-14T04:38:35;4.50;99.90
6307;DHT22;3186;54.062;9.962;2023-12-14T04:41:01;4.50;99.90
6307;DHT22;3186;54.062;9.962;2023-12-14T04:43:27;4.50;99.90
6307;DHT22;3186;54.062;9.962;2023-12-14T04:45:55;4.50;99.90
6307;DHT22;3186;54.062;9.962;2023-12-14T04:48:20;4.50;99.90
6307;DHT22;3186;54.062;9.962;2023-12-14T04:50:46;4.50;99.90
6307;DHT22;3186;54.062;9.962;2023-12-14T04:53:12;4.60;99.90
6307;DHT22;3186;54.062;9.962;2023-12-14T04:55:37;4.50;99.90
6307;DHT22;3186;54.062;9.962;2023-12-14T04:58:03;4.50;99.90
6307;DHT22;3186;54.062;9.962;2023-12-14T05:00:29;4.60;99.90
6307;DHT22;3186;54.062;9.962;2023-12-14T05:02:54;4.60;99.90
6307;DHT22;3186;54.062;9.962;2023-12-14T05:05:20;4.60;99.90
6307;DHT22;3186;54.062;9.962;2023-12-14T05:07:45;4.50;99.90
6307;DHT22;3186;54.062;9.962;2023-12-14T05:10:11;4.50;99.90
6307;DHT22;3186;54.062;9.962;2023-12-14T05:12:37;4.50;99.90
6307;DHT22;3186;54.062;9.962;2023-12-14T05:15:04;4.50;99.90
6307;DHT22;3186;54.062;9.962;2023-12-14T05:17:30;4.60;99.90
6307;DHT22;3186;54.062;9.962;2023-12-14T05:19:56;4.60;99.90
6307;DHT22;3186;54.062;9.962;2023-12-14T05:22:22;4.60;99.90
6307;DHT22;3186;54.062;9.962;2023-12-14T05:24:47;4.60;99.90
6307;DHT22;3186;54.062;9.962;2023-12-14T05:27:13;4.60;99.90
6307;DHT22;3186;54.062;9.962;2023-12-14T05:29:39;4.60;99.90
6307;DHT22;3186;54.062;9.962;2023-12-14T05:32:05;4.60;99.90
6307;DHT22;3186;54.062;9.962;2023-12-14T05:34:31;4.60;99.90
6307;DHT22;3186;54.062;9.962;2023-12-14T05:36:56;4.60;99.90
6307;DHT22;3186;54.062;9.962;2023-12-14T05:39:22;4.60;99.90
6307;DHT22;3186;54.062;9.962;2023-12-14T05:41:48;4.60;99.90
6307;DHT22;3186;54.062;9.962;2023-12-14T05:44:13;4.60;99.90
6307;DHT22;3186;54.062;9.962;2023-12-14T05:46:39;4.60;99.90
6307;DHT22;3186;54.062;9.962;2023-12-14T05:49:05;4.60;99.90
6307;DHT22;3186;54.062;9.962;2023-12-14T05:51:32;4.60;99.90
6307;DHT22;3186;54.062;9.962;2023-12-14T05:53:58;4.60;99.90
6307;DHT22;3186;54.062;9.962;2023-12-14T05:56:25;4.60;99.90
6307;DHT22;3186;54.062;9.962;2023-12-14T05:58:51;4.60;99.90
6307;DHT22;3186;54.062;9.962;2023-12-14T06:01:19;4.60;99.90
6307;DHT22;3186;54.062;9.962;2023-12-14T06:03:45;4.60;99.90
6307;DHT22;3186;54.062;9.962;2023-12-14T06:06:12;4.60;99.90
6307;DHT22;3186;54.062;9.962;2023-12-14T06:08:39;4.60;99.90
6307;DHT22;3186;54.062;9.962;2023-12-14T06:11:04;4.50;99.90
6307;DHT22;3186;54.062;9.962;2023-12-14T06:13:32;4.50;99.90
6307;DHT22;3186;54.062;9.962;2023-12-14T06:15:57;4.60;99.90
6307;DHT22;3186;54.062;9.962;2023-12-14T06:18:23;4.60;99.90
6307;DHT22;3186;54.062;9.962;2023-12-14T06:20:49;4.60;99.90
6307;DHT22;3186;54.062;9.962;2023-12-14T06:23:14;4.60;99.90
6307;DHT22;3186;54.062;9.962;2023-12-14T06:25:40;4.60;99.90
6307;DHT22;3186;54.062;9.962;2023-12-14T06:28:05;4.60;99.90
6307;DHT22;3186;54.062;9.962;2023-12-14T06:30:31;4.60;99.90
6307;DHT22;3186;54.062;9.962;2023-12-14T06:32:57;4.60;99.90
6307;DHT22;3186;54.062;9.962;2023-12-14T06:35:22;4.60;99.90
6307;DHT22;3186;54.062;9.962;2023-12-14T06:37:48;4.60;99.90
6307;DHT22;3186;54.062;9.962;2023-12-14T06:40:13;4.50;99.90
6307;DHT22;3186;54.062;9.962;2023-12-14T06:42:39;4.50;99.90
6307;DHT22;3186;54.062;9.962;2023-12-14T06:45:05;4.50;99.90
6307;DHT22;3186;54.062;9.962;2023-12-14T06:47:31;4.50;99.90
6307;DHT22;3186;54.062;9.962;2023-12-14T06:49:57;4.60;99.90
6307;DHT22;3186;54.062;9.962;2023-12-14T06:52:23;4.50;99.90
6307;DHT22;3186;54.062;9.962;2023-12-14T06:54:48;4.50;99.90
6307;DHT22;3186;54.062;9.962;2023-12-14T06:57:14;4.60;99.90
6307;DHT22;3186;54.062;9.962;2023-12-14T06:59:39;4.50;99.90
6307;DHT22;3186;54.062;9.962;2023-12-14T07:02:06;4.50;99.90
6307;DHT22;3186;54.062;9.962;2023-12-14T07:04:32;4.50;99.90
6307;DHT22;3186;54.062;9.962;2023-12-14T07:06:57;4.50;99.90
6307;DHT22;3186;54.062;9.962;2023-12-14T07:09:24;4.50;99.90
6307;DHT22;3186;54.062;9.962;2023-12-14T07:11:50;4.50;99.90
6307;DHT22;3186;54.062;9.962;2023-12-14T07:14:15;4.50;99.90
6307;DHT22;3186;54.062;9.962;2023-12-14T07:16:41;4.50;99.90
6307;DHT22;3186;54.062;9.962;2023-12-14T07:19:07;4.50;99.90
6307;DHT22;3186;54.062;9.962;2023-12-14T07:21:33;4.50;99.90
6307;DHT22;3186;54.062;9.962;2023-12-14T07:23:58;4.50;99.90
6307;DHT22;3186;54.062;9.962;2023-12-14T07:26:24;4.40;99.90
6307;DHT22;3186;54.062;9.962;2023-12-14T07:28:53;4.50;99.90
6307;DHT22;3186;54.062;9.962;2023-12-14T07:31:18;4.50;99.90
6307;DHT22;3186;54.062;9.962;2023-12-14T07:33:45;4.50;99.90
6307;DHT22;3186;54.062;9.962;2023-12-14T07:36:11;4.50;99.90
6307;DHT22;3186;54.062;9.962;2023-12-14T07:38:36;4.50;99.90
6307;DHT22;3186;54.062;9.962;2023-12-14T07:41:02;4.50;99.90
6307;DHT22;3186;54.062;9.962;2023-12-14T07:43:28;4.50;99.90
6307;DHT22;3186;54.062;9.962;2023-12-14T07:45:54;4.50;99.90
6307;DHT22;3186;54.062;9.962;2023-12-14T07:48:20;4.50;99.90
6307;DHT22;3186;54.062;9.962;2023-12-14T07:50:45;4.50;99.90
6307;DHT22;3186;54.062;9.962;2023-12-14T07:53:11;4.50;99.90
6307;DHT22;3186;54.062;9.962;2023-12-14T07:55:37;4.50;99.90
6307;DHT22;3186;54.062;9.962;2023-12-14T07:58:03;4.50;99.90
6307;DHT22;3186;54.062;9.962;2023-12-14T08:00:28;4.50;99.90
6307;DHT22;3186;54.062;9.962;2023-12-14T08:02:54;4.50;99.90
6307;DHT22;3186;54.062;9.962;2023-12-14T08:05:20;4.50;99.90
6307;DHT22;3186;54.062;9.962;2023-12-14T08:07:45;4.50;99.90
6307;DHT22;3186;54.062;9.962;2023-12-14T08:10:11;4.50;99.90
6307;DHT22;3186;54.062;9.962;2023-12-14T08:12:36;4.50;99.90
6307;DHT22;3186;54.062;9.962;2023-12-14T08:15:02;4.50;99.90
6307;DHT22;3186;54.062;9.962;2023-12-14T08:17:28;4.50;99.90
6307;DHT22;3186;54.062;9.962;2023-12-14T08:19:54;4.50;99.90
6307;DHT22;3186;54.062;9.962;2023-12-14T08:22:20;4.50;99.90
6307;DHT22;3186;54.062;9.962;2023-12-14T08:24:48;4.50;99.90
6307;DHT22;3186;54.062;9.962;2023-12-14T08:27:13;4.40;99.90
6307;DHT22;3186;54.062;9.962;2023-12-14T08:29:39;4.40;99.90
6307;DHT22;3186;54.062;9.962;2023-12-14T08:32:05;4.50;99.90
6307;DHT22;3186;54.062;9.962;2023-12-14T08:34:30;4.50;99.90
6307;DHT22;3186;54.062;9.962;2023-12-14T08:36:56;4.50;99.90
6307;DHT22;3186;54.062;9.962;2023-12-14T08:39:21;4.50;99.90
6307;DHT22;3186;54.062;9.962;2023-12-14T08:41:47;4.50;99.90
6307;DHT22;3186;54.062;9.962;2023-12-14T08:44:14;4.50;99.90
6307;DHT22;3186;54.062;9.962;2023-12-14T08:46:41;4.50;99.90
6307;DHT22;3186;54.062;9.962;2023-12-14T08:49:07;4.40;99.90
6307;DHT22;3186;54.062;9.962;2023-12-14T08:51:32;4.50;99.90
6307;DHT22;3186;54.062;9.962;2023-12-14T08:53:58;4.50;99.90
6307;DHT22;3186;54.062;9.962;2023-12-14T08:56:23;4.50;99.90
6307;DHT22;3186;54.062;9.962;2023-12-14T08:58:49;4.50;99.90
6307;DHT22;3186;54.062;9.962;2023-12-14T09:01:21;4.60;99.90
6307;DHT22;3186;54.062;9.962;2023-12-14T09:03:47;4.50;99.90
6307;DHT22;3186;54.062;9.962;2023-12-14T09:06:13;4.50;99.90
6307;DHT22;3186;54.062;9.962;2023-12-14T09:08:40;4.50;99.90
6307;DHT22;3186;54.062;9.962;2023-12-14T09:11:06;4.50;99.90
6307;DHT22;3186;54.062;9.962;2023-12-14T09:13:32;4.50;99.90
6307;DHT22;3186;54.062;9.962;2023-12-14T09:15:57;4.50;99.90
6307;DHT22;3186;54.062;9.962;2023-12-14T09:18:24;4.50;99.90
6307;DHT22;3186;54.062;9.962;2023-12-14T09:20:50;4.50;99.90
6307;DHT22;3186;54.062;9.962;2023-12-14T09:23:16;4.50;99.90
6307;DHT22;3186;54.062;9.962;2023-12-14T09:25:42;4.50;99.90
6307;DHT22;3186;54.062;9.962;2023-12-14T09:28:07;4.60;99.90
6307;DHT22;3186;54.062;9.962;2023-12-14T09:30:33;4.50;99.90
6307;DHT22;3186;54.062;9.962;2023-12-14T09:32:59;4.50;99.90
6307;DHT22;3186;54.062;9.962;2023-12-14T09:35:24;4.50;99.90
6307;DHT22;3186;54.062;9.962;2023-12-14T09:37:50;4.50;99.90
6307;DHT22;3186;54.062;9.962;2023-12-14T09:40:16;4.50;99.90
6307;DHT22;3186;54.062;9.962;2023-12-14T09:42:45;4.50;99.90
6307;DHT22;3186;54.062;9.962;2023-12-14T09:45:11;4.50;99.90
6307;DHT22;3186;54.062;9.962;2023-12-14T09:47:37;4.50;99.90
6307;DHT22;3186;54.062;9.962;2023-12-14T09:50:04;4.60;99.90
6307;DHT22;3186;54.062;9.962;2023-12-14T09:52:30;4.60;99.90
6307;DHT22;3186;54.062;9.962;2023-12-14T09:54:56;4.60;99.90
6307;DHT22;3186;54.062;9.962;2023-12-14T09:57:22;4.60;99.90
6307;DHT22;3186;54.062;9.962;2023-12-14T09:59:55;4.50;99.90
6307;DHT22;3186;54.062;9.962;2023-12-14T10:02:27;4.50;99.90
6307;DHT22;3186;54.062;9.962;2023-12-14T10:04:53;4.50;99.90
6307;DHT22;3186;54.062;9.962;2023-12-14T10:07:21;4.50;99.90
6307;DHT22;3186;54.062;9.962;2023-12-14T10:09:47;4.60;99.90
6307;DHT22;3186;54.062;9.962;2023-12-14T10:12:13;4.50;99.90
6307;DHT22;3186;54.062;9.962;2023-12-14T10:14:38;4.60;99.90
6307;DHT22;3186;54.062;9.962;2023-12-14T10:17:18;4.60;99.90
6307;DHT22;3186;54.062;9.962;2023-12-14T10:19:45;4.50;99.90
6307;DHT22;3186;54.062;9.962;2023-12-14T10:22:14;4.60;99.90
6307;DHT22;3186;54.062;9.962;2023-12-14T10:24:49;4.60;99.90
6307;DHT22;3186;54.062;9.962;2023-12-14T10:27:15;4.60;99.90
6307;DHT22;3186;54.062;9.962;2023-12-14T10:29:44;4.60;99.90
6307;DHT22;3186;54.062;9.962;2023-12-14T10:32:11;4.60;99.90
6307;DHT22;3186;54.062;9.962;2023-12-14T10:34:37;4.60;99.90
6307;DHT22;3186;54.062;9.962;2023-12-14T10:37:05;4.60;99.90
6307;DHT22;3186;54.062;9.962;2023-12-14T10:39:32;4.60;99.90
6307;DHT22;3186;54.062;9.962;2023-12-14T10:41:58;4.60;99.90
6307;DHT22;3186;54.062;9.962;2023-12-14T10:44:27;4.60;99.90
6307;DHT22;3186;54.062;9.962;2023-12-14T10:46:58;4.60;99.90
6307;DHT22;3186;54.062;9.962;2023-12-14T10:49:29;4.60;99.90
6307;DHT22;3186;54.062;9.962;2023-12-14T10:51:57;4.60;99.90
6307;DHT22;3186;54.062;9.962;2023-12-14T10:54:24;4.60;99.90
6307;DHT22;3186;54.062;9.962;2023-12-14T10:56:56;4.60;99.90
6307;DHT22;3186;54.062;9.962;2023-12-14T10:59:24;4.60;99.90
6307;DHT22;3186;54.062;9.962;2023-12-14T11:01:54;4.60;99.90
6307;DHT22;3186;54.062;9.962;2023-12-14T11:04:23;4.60;99.90
6307;DHT22;3186;54.062;9.962;2023-12-14T11:06:53;4.60;99.90
6307;DHT22;3186;54.062;9.962;2023-12-14T11:09:19;4.70;99.90
6307;DHT22;3186;54.062;9.962;2023-12-14T11:14:23;4.60;99.90
6307;DHT22;3186;54.062;9.962;2023-12-14T11:16:50;4.70;99.90
6307;DHT22;3186;54.062;9.962;2023-12-14T11:21:48;4.70;99.90
6307;DHT22;3186;54.062;9.962;2023-12-14T11:24:13;4.70;99.90
6307;DHT22;3186;54.062;9.962;2023-12-14T11:26:40;4.70;99.90
6307;DHT22;3186;54.062;9.962;2023-12-14T11:29:06;4.70;99.90
6307;DHT22;3186;54.062;9.962;2023-12-14T11:31:32;4.70;99.90
6307;DHT22;3186;54.062;9.962;2023-12-14T11:33:59;4.70;99.90
6307;DHT22;3186;54.062;9.962;2023-12-14T11:36:26;4.80;99.90
6307;DHT22;3186;54.062;9.962;2023-12-14T11:38:52;4.70;99.90
6307;DHT22;3186;54.062;9.962;2023-12-14T11:41:21;4.80;99.90
6307;DHT22;3186;54.062;9.962;2023-12-14T11:43:47;4.80;99.90
6307;DHT22;3186;54.062;9.962;2023-12-14T11:46:14;4.80;99.90
6307;DHT22;3186;54.062;9.962;2023-12-14T11:48:44;4.80;99.90
6307;DHT22;3186;54.062;9.962;2023-12-14T11:51:10;4.80;99.90
6307;DHT22;3186;54.062;9.962;2023-12-14T11:53:36;5.00;99.90
6307;DHT22;3186;54.062;9.962;2023-12-14T11:56:06;4.90;99.90
6307;DHT22;3186;54.062;9.962;2023-12-14T11:58:32;4.80;99.90
6307;DHT22;3186;54.062;9.962;2023-12-14T12:01:16;4.80;99.90
6307;DHT22;3186;54.062;9.962;2023-12-14T12:03:43;4.80;99.90
6307;DHT22;3186;54.062;9.962;2023-12-14T12:06:23;4.80;99.90
6307;DHT22;3186;54.062;9.962;2023-12-14T12:08:49;4.90;99.90
6307;DHT22;3186;54.062;9.962;2023-12-14T12:11:19;4.90;99.90
6307;DHT22;3186;54.062;9.962;2023-12-14T12:13:50;5.00;99.90
6307;DHT22;3186;54.062;9.962;2023-12-14T12:16:16;5.00;99.90
6307;DHT22;3186;54.062;9.962;2023-12-14T12:18:42;5.00;99.90
6307;DHT22;3186;54.062;9.962;2023-12-14T12:21:08;5.00;99.90
6307;DHT22;3186;54.062;9.962;2023-12-14T12:23:34;5.00;99.90
6307;DHT22;3186;54.062;9.962;2023-12-14T12:26:00;5.00;99.90
6307;DHT22;3186;54.062;9.962;2023-12-14T12:28:26;5.00;99.90
6307;DHT22;3186;54.062;9.962;2023-12-14T12:30:52;5.00;99.90
6307;DHT22;3186;54.062;9.962;2023-12-14T12:33:18;5.00;99.90
6307;DHT22;3186;54.062;9.962;2023-12-14T12:35:43;5.10;99.90
6307;DHT22;3186;54.062;9.962;2023-12-14T12:38:09;5.10;99.90
6307;DHT22;3186;54.062;9.962;2023-12-14T12:40:34;5.10;99.90
6307;DHT22;3186;54.062;9.962;2023-12-14T12:43:01;5.10;99.90
6307;DHT22;3186;54.062;9.962;2023-12-14T12:45:27;5.00;99.90
6307;DHT22;3186;54.062;9.962;2023-12-14T12:47:53;5.00;99.90
6307;DHT22;3186;54.062;9.962;2023-12-14T12:50:19;5.10;99.90
6307;DHT22;3186;54.062;9.962;2023-12-14T12:52:46;5.10;99.90
6307;DHT22;3186;54.062;9.962;2023-12-14T12:55:15;5.10;99.90
6307;DHT22;3186;54.062;9.962;2023-12-14T12:57:40;5.20;99.90
6307;DHT22;3186;54.062;9.962;2023-12-14T13:00:10;5.20;99.90
6307;DHT22;3186;54.062;9.962;2023-12-14T13:02:43;5.20;99.90
6307;DHT22;3186;54.062;9.962;2023-12-14T13:05:10;5.20;99.90
6307;DHT22;3186;54.062;9.962;2023-12-14T13:07:36;5.10;99.90
6307;DHT22;3186;54.062;9.962;2023-12-14T13:10:03;5.10;99.90
6307;DHT22;3186;54.062;9.962;2023-12-14T13:12:29;5.10;99.90
6307;DHT22;3186;54.062;9.962;2023-12-14T13:14:55;5.20;99.90
6307;DHT22;3186;54.062;9.962;2023-12-14T13:17:21;5.20;99.90
6307;DHT22;3186;54.062;9.962;2023-12-14T13:19:47;5.20;99.90
6307;DHT22;3186;54.062;9.962;2023-12-14T13:22:13;5.20;99.90
6307;DHT22;3186;54.062;9.962;2023-12-14T13:24:38;5.20;99.90
6307;DHT22;3186;54.062;9.962;2023-12-14T13:27:04;5.10;99.90
6307;DHT22;3186;54.062;9.962;2023-12-14T13:29:31;5.20;99.90
6307;DHT22;3186;54.062;9.962;2023-12-14T13:31:58;5.10;99.90
6307;DHT22;3186;54.062;9.962;2023-12-14T13:34:25;5.20;99.90
6307;DHT22;3186;54.062;9.962;2023-12-14T13:36:51;5.20;99.90
6307;DHT22;3186;54.062;9.962;2023-12-14T13:39:17;5.20;99.90
6307;DHT22;3186;54.062;9.962;2023-12-14T13:41:43;5.30;99.90
6307;DHT22;3186;54.062;9.962;2023-12-14T13:44:08;5.30;99.90
6307;DHT22;3186;54.062;9.962;2023-12-14T13:46:34;5.30;99.90
6307;DHT22;3186;54.062;9.962;2023-12-14T13:49:00;5.30;99.90
6307;DHT22;3186;54.062;9.962;2023-12-14T13:51:27;5.30;99.90
6307;DHT22;3186;54.062;9.962;2023-12-14T13:53:52;5.20;99.90
6307;DHT22;3186;54.062;9.962;2023-12-14T13:56:18;5.20;99.90
6307;DHT22;3186;54.062;9.962;2023-12-14T13:58:44;5.20;99.90
6307;DHT22;3186;54.062;9.962;2023-12-14T14:01:09;5.20;99.90
6307;DHT22;3186;54.062;9.962;2023-12-14T14:03:35;5.20;99.90
6307;DHT22;3186;54.062;9.962;2023-12-14T14:06:03;5.20;99.90
6307;DHT22;3186;54.062;9.962;2023-12-14T14:08:29;5.20;99.90
6307;DHT22;3186;54.062;9.962;2023-12-14T14:10:57;5.10;99.90
6307;DHT22;3186;54.062;9.962;2023-12-14T14:13:23;5.10;99.90
6307;DHT22;3186;54.062;9.962;2023-12-14T14:15:49;5.20;99.90
6307;DHT22;3186;54.062;9.962;2023-12-14T14:18:14;5.10;99.90
6307;DHT22;3186;54.062;9.962;2023-12-14T14:20:40;5.10;99.90
6307;DHT22;3186;54.062;9.962;2023-12-14T14:23:05;5.10;99.90
6307;DHT22;3186;54.062;9.962;2023-12-14T14:25:31;5.20;99.90
6307;DHT22;3186;54.062;9.962;2023-12-14T14:27:57;5.20;99.90
6307;DHT22;3186;54.062;9.962;2023-12-14T14:30:24;5.10;99.90
6307;DHT22;3186;54.062;9.962;2023-12-14T14:32:49;5.10;99.90
6307;DHT22;3186;54.062;9.962;2023-12-14T14:35:15;5.10;99.90
6307;DHT22;3186;54.062;9.962;2023-12-14T14:37:41;5.10;99.90
6307;DHT22;3186;54.062;9.962;2023-12-14T14:40:13;5.10;99.90
6307;DHT22;3186;54.062;9.962;2023-12-14T14:42:40;5.10;99.90
6307;DHT22;3186;54.062;9.962;2023-12-14T14:45:10;5.10;99.90
6307;DHT22;3186;54.062;9.962;2023-12-14T14:47:36;5.10;99.90
6307;DHT22;3186;54.062;9.962;2023-12-14T14:50:02;5.10;99.90
6307;DHT22;3186;54.062;9.962;2023-12-14T14:52:30;5.10;99.90
6307;DHT22;3186;54.062;9.962;2023-12-14T14:54:56;5.10;99.90
6307;DHT22;3186;54.062;9.962;2023-12-14T14:57:21;5.00;99.90
6307;DHT22;3186;54.062;9.962;2023-12-14T14:59:47;5.00;99.90
6307;DHT22;3186;54.062;9.962;2023-12-14T15:02:13;5.00;99.90
6307;DHT22;3186;54.062;9.962;2023-12-14T15:04:38;5.00;99.90
6307;DHT22;3186;54.062;9.962;2023-12-14T15:07:04;5.00;99.90
6307;DHT22;3186;54.062;9.962;2023-12-14T15:09:30;5.00;99.90
6307;DHT22;3186;54.062;9.962;2023-12-14T15:11:55;5.00;99.90
6307;DHT22;3186;54.062;9.962;2023-12-14T15:14:21;5.00;99.90
6307;DHT22;3186;54.062;9.962;2023-12-14T15:16:46;5.00;99.90
6307;DHT22;3186;54.062;9.962;2023-12-14T15:19:12;5.00;99.90
6307;DHT22;3186;54.062;9.962;2023-12-14T15:21:38;4.90;99.90
6307;DHT22;3186;54.062;9.962;2023-12-14T15:24:04;4.90;99.90
6307;DHT22;3186;54.062;9.962;2023-12-14T15:26:30;4.90;99.90
6307;DHT22;3186;54.062;9.962;2023-12-14T15:28:58;4.90;99.90
6307;DHT22;3186;54.062;9.962;2023-12-14T15:31:24;4.90;99.90
6307;DHT22;3186;54.062;9.962;2023-12-14T15:33:49;4.90;99.90
6307;DHT22;3186;54.062;9.962;2023-12-14T15:36:15;4.80;99.90
6307;DHT22;3186;54.062;9.962;2023-12-14T15:38:40;4.80;99.90
6307;DHT22;3186;54.062;9.962;2023-12-14T15:41:10;4.80;99.90
6307;DHT22;3186;54.062;9.962;2023-12-14T15:43:37;4.80;99.90
6307;DHT22;3186;54.062;9.962;2023-12-14T15:46:02;4.80;99.90
6307;DHT22;3186;54.062;9.962;2023-12-14T15:48:28;4.70;99.90
6307;DHT22;3186;54.062;9.962;2023-12-14T15:50:53;4.70;99.90
6307;DHT22;3186;54.062;9.962;2023-12-14T15:53:19;4.70;99.90
6307;DHT22;3186;54.062;9.962;2023-12-14T15:55:45;4.70;99.90
6307;DHT22;3186;54.062;9.962;2023-12-14T15:58:10;4.70;99.90
6307;DHT22;3186;54.062;9.962;2023-12-14T16:00:37;4.60;99.90
6307;DHT22;3186;54.062;9.962;2023-12-14T16:03:04;4.70;99.90
6307;DHT22;3186;54.062;9.962;2023-12-14T16:05:30;4.60;99.90
6307;DHT22;3186;54.062;9.962;2023-12-14T16:07:55;4.60;99.90
6307;DHT22;3186;54.062;9.962;2023-12-14T16:10:21;4.60;99.90
6307;DHT22;3186;54.062;9.962;2023-12-14T16:12:47;4.60;99.90
6307;DHT22;3186;54.062;9.962;2023-12-14T16:15:12;4.50;99.90
6307;DHT22;3186;54.062;9.962;2023-12-14T16:17:38;4.50;99.90